Time;durP1;ratioP1;P1;durP2;ratioP2;P2;SDS_P1;SDS_P2;PMS_P1;PMS_P2;Temp;Humidity;BMP_temperature;BMP_pressure;BME280_temperature;BME280_humidity;BME280_pressure;Samples;Min_cycle;Max_cycle;Signal;HPM_P1;HPM_P2
2022/04/21 00:01:34;;;;;;;5.43;3.88;;;5.50;30.40;;;;;;5037601;28;20025;-83
2022/04/21 00:03:59;;;;;;;5.88;3.72;;;5.40;38.80;;;;;;5020096;28;20025;-83
2022/04/21 00:06:25;;;;;;;6.18;4.13;;;5.40;19.40;;;;;;5037950;28;20608;-82
2022/04/21 00:08:51;;;;;;;7.15;4.50;;;5.30;36.40;;;;;;5038575;28;20022;-83
2022/04/21 00:11:16;;;;;;;9.02;4.95;;;5.40;48.00;;;;;;5038225;28;20496;-83
2022/04/21 00:13:42;;;;;;;7.03;4.18;;;5.30;51.70;;;;;;5038627;28;20104;-83
2022/04/21 00:16:08;;;;;;;7.22;4.82;;;5.40;69.00;;;;;;5019940;28;20022;-81
2022/04/21 00:18:33;;;;;;;9.85;4.68;;;5.40;56.50;;;;;;5015585;28;20026;-82
2022/04/21 00:21:01;;;;;;;7.88;4.55;;;5.40;55.80;;;;;;5016075;28;20026;-81
2022/04/21 00:23:27;;;;;;;8.93;4.57;;;5.40;70.00;;;;;;5015965;28;20021;-81
2022/04/21 00:25:54;;;;;;;8.30;4.88;;;5.30;57.10;;;;;;5015640;28;20525;-81
2022/04/21 00:28:20;;;;;;;8.07;5.00;;;5.30;70.70;;;;;;5015459;28;20124;-81
2022/04/21 00:30:46;;;;;;;9.65;4.95;;;5.50;76.10;;;;;;4997774;28;20037;-82
2022/04/21 00:33:11;;;;;;;9.20;5.20;;;5.50;60.90;;;;;;5015597;28;20030;-82
2022/04/21 00:35:37;;;;;;;8.88;5.18;;;5.40;54.90;;;;;;5015467;28;20030;-82
2022/04/21 00:38:03;;;;;;;10.00;5.30;;;5.50;72.70;;;;;;5015244;28;20029;-82
2022/04/21 00:40:29;;;;;;;12.57;5.35;;;5.50;72.00;;;;;;5015270;28;20482;-81
2022/04/21 00:42:57;;;;;;;10.60;5.47;;;5.50;85.70;;;;;;5023665;28;20100;-81
2022/04/21 00:45:24;;;;;;;9.10;5.53;;;5.50;85.10;;;;;;5036686;28;20028;-81
2022/04/21 00:47:51;;;;;;;9.57;5.40;;;5.50;77.20;;;;;;5019687;28;20025;-81
2022/04/21 00:50:18;;;;;;;7.38;5.32;;;5.50;73.70;;;;;;5038228;28;20029;-81
2022/04/21 00:52:45;;;;;;;10.32;5.80;;;5.50;70.40;;;;;;5037226;28;20033;-81
2022/04/21 00:55:12;;;;;;;12.05;5.97;;;5.40;95.80;;;;;;5037603;28;20017;-81
2022/04/21 00:57:39;;;;;;;10.60;5.80;;;5.40;95.60;;;;;;5025518;28;20088;-81
2022/04/21 01:00:06;;;;;;;11.15;6.63;;;5.40;95.10;;;;;;5031325;28;20516;-81
2022/04/21 01:02:49;;;;;;;10.00;5.88;;;5.40;99.90;;;;;;5016994;28;20031;-81
2022/04/21 01:05:26;;;;;;;11.30;6.13;;;5.30;99.90;;;;;;5035241;28;20022;-81
2022/04/21 01:08:10;;;;;;;11.43;7.13;;;5.40;94.70;;;;;;5035162;28;20026;-81
2022/04/21 01:10:41;;;;;;;13.50;7.13;;;5.30;99.90;;;;;;5034975;28;20033;-81
2022/04/21 01:13:08;;;;;;;12.65;6.55;;;5.30;99.90;;;;;;5051767;23;20069;-83
2022/04/21 01:15:35;;;;;;;12.82;6.82;;;5.50;99.90;;;;;;5075227;28;20016;-84
2022/04/21 01:18:00;;;;;;;13.05;7.03;;;5.50;97.70;;;;;;5059769;28;20029;-82
2022/04/21 01:20:54;;;;;;;13.80;7.90;;;5.50;94.30;;;;;;5054634;28;20094;-83
2022/04/21 01:23:19;;;;;;;11.30;7.53;;;5.50;95.30;;;;;;5062925;28;20387;-84
2022/04/21 01:25:45;;;;;;;12.55;7.43;;;5.50;99.90;;;;;;5074017;28;20476;-83
2022/04/21 01:28:12;;;;;;;13.02;7.00;;;5.40;99.00;;;;;;5072640;28;20021;-83
2022/04/21 01:30:39;;;;;;;17.15;7.75;;;5.70;91.40;;;;;;5073900;28;20096;-83
2022/04/21 01:33:04;;;;;;;14.52;8.30;;;5.80;92.70;;;;;;5072818;28;20017;-83
2022/04/21 01:35:30;;;;;;;13.93;8.10;;;5.80;90.70;;;;;;5073731;28;20104;-83
2022/04/21 01:43:23;;;;;;;14.63;9.00;;;5.80;84.70;;;;;;5057160;28;20032;-84
2022/04/21 01:45:49;;;;;;;17.25;9.15;;;5.60;88.90;;;;;;5053894;28;20396;-83
2022/04/21 01:48:15;;;;;;;13.82;8.68;;;5.50;91.00;;;;;;5053775;28;20083;-84
2022/04/21 01:50:40;;;;;;;15.55;8.95;;;5.40;96.40;;;;;;5053664;28;20087;-83
2022/04/21 01:53:06;;;;;;;15.98;8.35;;;5.40;99.90;;;;;;5053659;28;20069;-84
2022/04/21 01:55:32;;;;;;;15.32;8.95;;;5.40;99.90;;;;;;5053555;28;20087;-83
2022/04/21 01:57:57;;;;;;;16.98;9.52;;;5.40;99.90;;;;;;5053633;28;20472;-83
2022/04/21 02:00:23;;;;;;;14.82;8.88;;;5.30;99.90;;;;;;5053936;28;20385;-83
2022/04/21 02:02:49;;;;;;;18.38;9.35;;;5.20;99.90;;;;;;5056492;28;20096;-83
2022/04/21 02:05:15;;;;;;;16.48;9.38;;;5.20;99.90;;;;;;5053537;28;20056;-83
2022/04/21 02:07:45;;;;;;;15.10;9.40;;;5.30;99.90;;;;;;5052376;28;20029;-83
2022/04/21 02:10:57;;;;;;;20.55;9.60;;;5.30;99.90;;;;;;5053356;28;20108;-83
2022/04/21 02:13:23;;;;;;;14.93;9.18;;;5.30;99.90;;;;;;5052998;28;20491;-83
2022/04/21 02:15:48;;;;;;;17.88;10.23;;;5.20;99.90;;;;;;5053438;28;20033;-83
2022/04/21 02:18:14;;;;;;;17.92;9.75;;;5.20;99.90;;;;;;5053295;28;20084;-83
2022/04/21 02:20:39;;;;;;;16.60;9.77;;;5.30;99.90;;;;;;5053207;28;20025;-84
2022/04/21 02:23:05;;;;;;;18.73;9.43;;;5.20;99.90;;;;;;5053163;28;20465;-84
2022/04/21 02:25:31;;;;;;;14.98;9.75;;;5.10;99.90;;;;;;5053315;28;20024;-84
2022/04/21 02:27:56;;;;;;;17.67;9.75;;;5.10;99.90;;;;;;5053339;28;20064;-84
2022/04/21 02:30:22;;;;;;;18.58;11.00;;;4.90;99.90;;;;;;5053547;28;20108;-83
2022/04/21 02:32:47;;;;;;;17.77;9.90;;;5.00;99.90;;;;;;5053234;28;20025;-84
2022/04/21 02:35:14;;;;;;;17.88;10.27;;;5.00;99.90;;;;;;5035566;28;20021;-83
2022/04/21 02:37:45;;;;;;;16.05;10.60;;;5.10;99.90;;;;;;5053293;28;20075;-83
2022/04/21 02:40:12;;;;;;;18.05;10.30;;;5.20;99.90;;;;;;5053007;28;21926;-83
2022/04/21 02:42:38;;;;;;;19.33;10.75;;;5.10;99.90;;;;;;5053044;28;20095;-84
2022/04/21 02:46:00;;;;;;;19.67;10.32;;;5.10;99.90;;;;;;5053154;28;20029;-83
2022/04/21 02:48:25;;;;;;;19.88;11.27;;;5.10;99.90;;;;;;5031706;28;20037;-84
2022/04/21 02:50:51;;;;;;;18.25;9.38;;;5.20;99.90;;;;;;5033228;28;20049;-84
2022/04/21 02:53:18;;;;;;;19.85;11.07;;;5.10;99.90;;;;;;5033177;28;20022;-83
2022/04/21 02:59:06;;;;;;;23.70;10.10;;;4.90;99.90;;;;;;5033404;28;20534;-84
2022/04/21 03:01:32;;;;;;;14.80;9.38;;;4.80;99.90;;;;;;5033056;28;20032;-83
2022/04/21 03:03:57;;;;;;;20.67;10.45;;;4.70;99.90;;;;;;5033046;28;20034;-83
2022/04/21 03:06:23;;;;;;;19.80;11.05;;;4.80;99.90;;;;;;5032962;28;20033;-84
2022/04/21 03:08:48;;;;;;;20.00;11.13;;;4.90;99.90;;;;;;5033275;28;20080;-84
2022/04/21 03:11:14;;;;;;;18.98;10.80;;;4.70;99.90;;;;;;5033255;28;20029;-83
2022/04/21 03:13:39;;;;;;;17.63;10.90;;;4.80;99.90;;;;;;5032645;28;20061;-83
2022/04/21 03:16:05;;;;;;;17.58;10.90;;;4.90;99.90;;;;;;5035786;28;20079;-83
2022/04/21 03:18:30;;;;;;;20.92;11.32;;;4.80;99.90;;;;;;5053645;28;20407;-83
2022/04/21 03:26:24;;;;;;;19.88;11.73;;;4.70;99.90;;;;;;5056462;28;20036;-83
2022/04/21 03:28:50;;;;;;;20.52;12.30;;;4.90;99.90;;;;;;5056403;28;20456;-83
2022/04/21 03:31:15;;;;;;;19.70;11.43;;;4.90;99.90;;;;;;5056477;28;20025;-83
2022/04/21 03:33:41;;;;;;;20.75;12.98;;;4.80;99.90;;;;;;5056298;28;20021;-83
2022/04/21 03:36:07;;;;;;;27.35;11.57;;;4.80;99.90;;;;;;5056233;28;20032;-83
2022/04/21 03:38:32;;;;;;;21.15;11.95;;;4.80;99.90;;;;;;5041396;28;20034;-83
2022/04/21 03:40:58;;;;;;;23.45;11.73;;;4.80;99.90;;;;;;5036184;28;20022;-83
2022/04/21 03:43:24;;;;;;;20.65;12.10;;;4.80;99.90;;;;;;5036348;28;20100;-84
2022/04/21 03:45:49;;;;;;;22.88;12.13;;;4.90;99.90;;;;;;5036037;28;20025;-84
2022/04/21 03:48:16;;;;;;;20.02;11.75;;;4.90;99.90;;;;;;5036103;28;20696;-83
2022/04/21 03:50:41;;;;;;;22.58;11.88;;;4.80;99.90;;;;;;5018149;28;20025;-83
2022/04/21 03:53:07;;;;;;;20.58;11.00;;;4.80;99.90;;;;;;5036028;28;20021;-83
2022/04/21 03:55:33;;;;;;;21.83;12.32;;;4.70;99.90;;;;;;5035832;28;20495;-84
2022/04/21 03:57:58;;;;;;;22.52;11.15;;;4.80;99.90;;;;;;5036032;28;20096;-83
2022/04/21 04:00:24;;;;;;;27.20;11.68;;;4.80;99.90;;;;;;5038289;28;20028;-84
2022/04/21 04:02:49;;;;;;;22.52;11.90;;;4.90;99.90;;;;;;5055740;28;20104;-84
2022/04/21 04:05:15;;;;;;;23.88;14.00;;;5.00;99.90;;;;;;5055539;28;20028;-83
2022/04/21 04:13:09;;;;;;;20.38;12.52;;;5.00;99.90;;;;;;5055268;28;20036;-83
2022/04/21 04:15:35;;;;;;;23.02;12.48;;;5.10;99.90;;;;;;5055465;28;20029;-83
2022/04/21 04:18:00;;;;;;;21.65;13.35;;;5.00;99.90;;;;;;5055341;28;20024;-83
2022/04/21 04:20:26;;;;;;;22.77;12.55;;;5.00;99.90;;;;;;5055174;28;20361;-83
2022/04/21 04:22:51;;;;;;;20.45;12.40;;;5.00;99.90;;;;;;5055072;28;20096;-83
2022/04/21 04:25:17;;;;;;;23.80;12.63;;;5.00;99.90;;;;;;5055059;28;20023;-83
2022/04/21 04:27:46;;;;;;;20.65;11.60;;;5.10;99.90;;;;;;5055108;28;20033;-83
2022/04/21 04:30:13;;;;;;;20.58;11.85;;;5.00;99.90;;;;;;5055171;28;20025;-83
2022/04/21 04:32:38;;;;;;;16.40;10.52;;;4.90;99.90;;;;;;5037098;28;20031;-83
2022/04/21 04:35:04;;;;;;;17.88;10.88;;;4.80;99.90;;;;;;5054617;28;20100;-82
2022/04/21 04:37:46;;;;;;;19.75;11.45;;;4.90;99.90;;;;;;5054893;28;20742;-82
2022/04/21 04:40:12;;;;;;;20.52;11.55;;;5.00;99.90;;;;;;5055668;28;20028;-83
2022/04/21 04:43:01;;;;;;;17.85;10.88;;;5.10;99.90;;;;;;5055201;28;20481;-82
2022/04/21 04:48:11;;;;;;;18.08;11.00;;;5.20;99.90;;;;;;5050967;28;20424;-84
2022/04/21 04:50:36;;;;;;;20.13;10.65;;;5.20;95.50;;;;;;5048992;28;20025;-83
2022/04/21 04:53:03;;;;;;;18.00;10.20;;;5.20;96.70;;;;;;5040604;28;20025;-83
2022/04/21 04:55:30;;;;;;;16.25;9.85;;;5.20;99.60;;;;;;5047543;28;20063;-84
2022/04/21 04:57:55;;;;;;;17.60;9.98;;;5.20;98.00;;;;;;5047767;28;20013;-84
2022/04/21 05:00:21;;;;;;;19.17;10.65;;;5.30;93.40;;;;;;5048736;28;20468;-83
2022/04/21 05:02:47;;;;;;;18.23;10.35;;;5.30;90.70;;;;;;5048718;28;20412;-84
2022/04/21 05:05:13;;;;;;;17.63;10.00;;;5.20;97.20;;;;;;5047260;28;20025;-84
2022/04/21 05:07:41;;;;;;;17.60;10.50;;;5.20;99.90;;;;;;5047813;28;20056;-84
2022/04/21 05:10:08;;;;;;;17.27;10.23;;;5.10;96.40;;;;;;5023755;28;20403;-84
2022/04/21 05:12:34;;;;;;;16.20;9.48;;;5.10;99.90;;;;;;5050218;28;20472;-84
2022/04/21 05:15:00;;;;;;;16.92;10.30;;;5.20;99.10;;;;;;5043395;28;20053;-84
2022/04/21 05:17:26;;;;;;;16.45;9.98;;;5.30;92.60;;;;;;5041496;28;20088;-84
2022/04/21 05:19:54;;;;;;;16.77;9.88;;;5.40;88.30;;;;;;5049731;28;20020;-84
2022/04/21 05:22:26;;;;;;;17.27;9.98;;;5.50;82.70;;;;;;5047964;28;20436;-84
2022/04/21 05:24:52;;;;;;;15.35;9.25;;;5.50;79.60;;;;;;5053515;28;20025;-84
2022/04/21 05:27:18;;;;;;;18.42;10.20;;;5.60;73.00;;;;;;5055161;28;20115;-84
2022/04/21 05:32:36;;;;;;;17.67;10.32;;;5.80;75.50;;;;;;5053993;28;20388;-84
2022/04/21 05:35:03;;;;;;;14.38;8.90;;;6.20;76.80;;;;;;5044827;28;20035;-84
2022/04/21 05:37:29;;;;;;;13.43;8.82;;;9.50;1.00;;;;;;5048176;28;20039;-84
2022/04/21 05:39:54;;;;;;;18.20;9.98;;;11.90;99.90;;;;;;5029114;28;20144;-83
2022/04/21 05:42:23;;;;;;;18.42;10.25;;;13.50;99.90;;;;;;5055100;28;20033;-83
2022/04/21 05:44:53;;;;;;;14.60;9.57;;;14.00;99.90;;;;;;5061337;28;20025;-84
2022/04/21 05:47:20;;;;;;;15.18;8.32;;;14.10;99.90;;;;;;5033435;28;20029;-84
2022/04/21 05:49:46;;;;;;;10.88;6.97;;;14.70;99.90;;;;;;5051269;28;20032;-84
2022/04/21 05:52:13;;;;;;;15.02;8.45;;;14.10;99.90;;;;;;5041562;28;20029;-83
2022/04/21 05:54:39;;;;;;;12.85;8.60;;;12.00;99.90;;;;;;5058149;28;20272;-84
2022/04/21 05:57:05;;;;;;;11.80;7.85;;;9.90;99.90;;;;;;5049677;28;20025;-84
2022/04/21 05:59:30;;;;;;;14.48;8.57;;;9.20;99.90;;;;;;5028462;28;20029;-84
2022/04/21 06:01:56;;;;;;;12.80;8.55;;;8.90;99.90;;;;;;5033079;28;20071;-84
2022/04/21 06:04:23;;;;;;;13.68;9.13;;;8.70;1.00;;;;;;5043633;28;20048;-84
2022/04/21 06:06:49;;;;;;;14.80;8.55;;;8.60;1.00;;;;;;5042726;28;20025;-84
2022/04/21 06:09:15;;;;;;;12.50;8.07;;;8.50;1.00;;;;;;5051642;28;20477;-84
2022/04/21 06:11:42;;;;;;;9.38;6.28;;;8.50;1.00;;;;;;5048458;28;20167;-84
2022/04/21 06:14:07;;;;;;;11.70;7.72;;;8.60;1.00;;;;;;5030725;28;20037;-84
2022/04/21 06:16:33;;;;;;;12.77;7.35;;;8.60;1.00;;;;;;5046590;28;20504;-83
2022/04/21 06:18:59;;;;;;;13.82;8.35;;;8.60;1.00;;;;;;5049465;28;20092;-84
2022/04/21 06:21:24;;;;;;;14.95;8.40;;;8.70;1.00;;;;;;5041525;28;20029;-83
2022/04/21 06:23:50;;;;;;;11.55;8.48;;;8.70;1.00;;;;;;5032129;28;20033;-84
2022/04/21 06:26:16;;;;;;;13.50;7.63;;;8.80;1.00;;;;;;5039991;28;20041;-83
2022/04/21 06:28:42;;;;;;;12.00;7.88;;;8.90;1.00;;;;;;5041738;28;20035;-83
2022/04/21 06:31:08;;;;;;;12.82;6.75;;;9.10;1.00;;;;;;5042469;28;20104;-83
2022/04/21 06:33:33;;;;;;;13.25;7.70;;;9.20;1.00;;;;;;5017409;28;20018;-83
2022/04/21 06:36:00;;;;;;;12.70;7.38;;;11.10;99.90;;;;;;5049369;28;20507;-83
2022/04/21 06:38:25;;;;;;;9.70;7.10;;;15.10;99.90;;;;;;5050304;28;20036;-84
2022/04/21 06:40:51;;;;;;;12.82;7.85;;;16.80;99.90;;;;;;5041300;28;20034;-84
2022/04/21 06:48:48;;;;;;;11.32;7.45;;;20.10;99.90;;;;;;5038584;28;20134;-84
2022/04/21 06:51:15;;;;;;;9.55;6.93;;;20.20;99.90;;;;;;5043080;28;20056;-83
2022/04/21 06:53:42;;;;;;;11.25;7.43;;;20.80;99.90;;;;;;5053827;28;20390;-83
2022/04/21 06:56:08;;;;;;;9.77;7.25;;;20.70;99.90;;;;;;5053968;28;20430;-83
2022/04/21 06:58:34;;;;;;;8.40;6.45;;;17.60;99.90;;;;;;5043298;28;20025;-83
2022/04/21 07:01:00;;;;;;;8.93;6.28;;;21.70;99.90;;;;;;5053497;28;20028;-84
2022/04/21 07:03:27;;;;;;;10.02;6.65;;;22.90;99.90;;;;;;5045574;28;20160;-84
2022/04/21 07:05:55;;;;;;;8.00;5.72;;;21.80;99.90;;;;;;5045903;28;20032;-83
2022/04/21 07:08:21;;;;;;;8.57;5.95;;;21.10;99.90;;;;;;5053752;28;20033;-84
2022/04/21 07:10:46;;;;;;;9.93;5.80;;;21.40;99.90;;;;;;5053041;28;20025;-83
2022/04/21 07:13:13;;;;;;;8.13;5.90;;;21.60;99.90;;;;;;5037996;28;20040;-84
2022/04/21 07:15:40;;;;;;;7.72;5.78;;;23.70;99.90;;;;;;5041221;28;20034;-83
2022/04/21 07:18:06;;;;;;;7.13;5.75;;;23.30;99.90;;;;;;5041320;28;20043;-83
2022/04/21 07:20:32;;;;;;;8.35;5.13;;;22.40;99.90;;;;;;5025889;28;20043;-84
2022/04/21 07:22:57;;;;;;;7.28;6.15;;;24.30;99.90;;;;;;5039680;28;20305;-83
2022/04/21 07:25:23;;;;;;;8.40;5.32;;;23.80;99.90;;;;;;5033524;28;20124;-84
2022/04/21 07:27:49;;;;;;;8.70;4.93;;;24.80;99.90;;;;;;5045804;28;20048;-83
2022/04/21 07:30:14;;;;;;;5.95;5.05;;;24.20;99.90;;;;;;5032694;28;20082;-84
2022/04/21 07:32:40;;;;;;;6.70;4.88;;;25.40;99.90;;;;;;5042653;28;20392;-84
2022/04/21 07:35:06;;;;;;;6.78;4.90;;;23.80;99.90;;;;;;5040675;28;20021;-83
2022/04/21 07:37:33;;;;;;;5.50;4.32;;;23.80;99.90;;;;;;5052292;28;20136;-84
2022/04/21 07:39:59;;;;;;;6.63;4.97;;;26.50;99.90;;;;;;5041314;28;20029;-83
2022/04/21 07:42:24;;;;;;;6.63;5.25;;;25.00;99.90;;;;;;5047772;28;20014;-83
2022/04/21 07:44:51;;;;;;;6.72;5.28;;;23.40;99.90;;;;;;5050709;28;20025;-84
2022/04/21 07:47:16;;;;;;;6.63;4.78;;;25.50;99.90;;;;;;5032941;28;20018;-84
2022/04/21 07:49:45;;;;;;;7.05;4.30;;;24.90;99.90;;;;;;5049498;28;20043;-84
2022/04/21 07:55:06;;;;;;;6.75;5.00;;;26.30;99.90;;;;;;5041165;28;20447;-83
2022/04/21 07:57:32;;;;;;;5.13;3.70;;;26.50;99.90;;;;;;5047942;28;20094;-84
2022/04/21 07:59:57;;;;;;;6.63;4.00;;;25.50;99.90;;;;;;5052085;28;20032;-84
2022/04/21 08:02:24;;;;;;;5.45;4.10;;;28.40;99.90;;;;;;5051507;28;20060;-84
2022/04/21 08:04:49;;;;;;;3.97;3.40;;;24.60;99.90;;;;;;5050728;28;20028;-84
2022/04/21 08:07:15;;;;;;;4.97;3.95;;;25.80;99.90;;;;;;5050133;28;20029;-84
2022/04/21 08:09:40;;;;;;;4.15;3.63;;;24.50;99.90;;;;;;5036124;28;20034;-84
2022/04/21 08:12:07;;;;;;;4.97;3.90;;;24.80;99.90;;;;;;5051961;28;20016;-83
2022/04/21 08:14:33;;;;;;;4.57;3.60;;;25.90;99.90;;;;;;5043737;28;20049;-84
2022/04/21 08:16:58;;;;;;;4.68;4.05;;;25.00;99.90;;;;;;5015556;28;20105;-84
2022/04/21 08:19:24;;;;;;;4.47;3.83;;;25.70;99.90;;;;;;5040789;28;20334;-84
2022/04/21 08:21:49;;;;;;;3.72;3.00;;;26.00;99.90;;;;;;5048282;28;20328;-84
2022/04/21 08:32:36;;;;;;;2.80;2.47;;;25.80;99.90;;;;;;5040682;28;20448;-84
2022/04/21 08:35:03;;;;;;;2.70;2.33;;;26.20;99.90;;;;;;5049786;28;20028;-84
2022/04/21 08:37:29;;;;;;;3.25;2.30;;;25.20;99.90;;;;;;5052220;28;20025;-85
2022/04/21 08:39:55;;;;;;;3.40;2.92;;;25.00;99.90;;;;;;5055055;28;20032;-84
2022/04/21 08:42:22;;;;;;;2.78;2.50;;;24.80;99.90;;;;;;5051828;28;20024;-85
2022/04/21 08:44:49;;;;;;;6.13;2.90;;;25.90;99.90;;;;;;5052309;28;20484;-85
2022/04/21 08:47:18;;;;;;;4.38;3.10;;;26.10;99.90;;;;;;5050798;28;20090;-85
2022/04/21 08:49:48;;;;;;;4.03;2.90;;;25.80;99.90;;;;;;5051118;28;20033;-84
2022/04/21 08:52:16;;;;;;;6.40;2.88;;;24.50;99.90;;;;;;5046874;28;20032;-84
2022/04/21 08:54:42;;;;;;;3.72;2.78;;;26.30;99.90;;;;;;5043214;28;20044;-84
2022/04/21 08:57:09;;;;;;;3.22;2.78;;;25.20;99.90;;;;;;5044826;28;20553;-84
2022/04/21 08:59:34;;;;;;;3.50;2.88;;;26.00;99.90;;;;;;5048445;28;20029;-84
2022/04/21 09:02:00;;;;;;;3.42;3.13;;;25.80;99.90;;;;;;5039989;28;20465;-84
2022/04/21 09:04:26;;;;;;;2.47;2.28;;;24.80;99.90;;;;;;5043573;28;20071;-84
2022/04/21 09:06:52;;;;;;;5.60;3.17;;;24.70;99.90;;;;;;5043588;28;20436;-84
2022/04/21 09:09:22;;;;;;;5.18;3.33;;;24.50;99.90;;;;;;5037031;28;20064;-84
2022/04/21 09:11:54;;;;;;;4.85;3.13;;;25.30;99.90;;;;;;5027116;28;20554;-84
2022/04/21 09:14:20;;;;;;;5.47;3.05;;;24.90;99.90;;;;;;5036963;28;20107;-84
2022/04/21 09:16:47;;;;;;;4.15;3.30;;;22.40;99.90;;;;;;5044384;28;20017;-84
2022/04/21 09:19:13;;;;;;;4.10;3.28;;;24.30;99.90;;;;;;5033342;28;20029;-84
2022/04/21 09:21:40;;;;;;;4.07;3.40;;;25.90;99.90;;;;;;5046082;28;20048;-84
2022/04/21 09:24:23;;;;;;;4.22;3.30;;;24.80;99.90;;;;;;5045772;28;20557;-84
2022/04/21 09:26:49;;;;;;;4.82;3.15;;;26.40;99.90;;;;;;5028785;28;20051;-84
2022/04/21 09:29:28;;;;;;;5.70;3.30;;;24.40;99.90;;;;;;5048087;28;20031;-83
2022/04/21 09:32:04;;;;;;;4.27;3.20;;;27.00;99.90;;;;;;5044810;28;20413;-83
2022/04/21 09:34:30;;;;;;;4.10;3.67;;;26.40;99.90;;;;;;5050184;28;20028;-82
2022/04/21 09:36:59;;;;;;;4.18;3.28;;;26.20;99.90;;;;;;5044613;28;20034;-85
2022/04/21 09:39:27;;;;;;;3.97;2.70;;;27.10;99.90;;;;;;5033402;28;20376;-83
2022/04/21 09:41:56;;;;;;;5.32;2.90;;;25.40;99.90;;;;;;5052807;28;20055;-83
2022/04/21 09:47:21;;;;;;;4.65;3.58;;;24.30;99.90;;;;;;5051602;28;20554;-84
2022/04/21 09:49:46;;;;;;;;;;;24.80;99.90;;;;;;5057004;28;20021;-83
2022/04/21 09:52:13;;;;;;;4.72;2.65;;;25.40;99.90;;;;;;5046380;28;20011;-83
2022/04/21 09:54:45;;;;;;;3.70;3.30;;;24.60;99.90;;;;;;5043381;28;20022;-83
2022/04/21 09:57:11;;;;;;;3.30;3.00;;;24.60;99.90;;;;;;5048115;28;20387;-83
2022/04/21 09:59:39;;;;;;;4.38;3.05;;;23.90;99.90;;;;;;5033134;28;20021;-83
2022/04/21 10:02:06;;;;;;;3.10;2.80;;;24.70;99.90;;;;;;5042921;28;20036;-83
2022/04/21 10:04:31;;;;;;;4.03;2.92;;;24.20;99.90;;;;;;5043143;28;20443;-83
2022/04/21 10:06:57;;;;;;;3.70;2.78;;;24.20;99.90;;;;;;5050602;28;20052;-83
2022/04/21 10:09:23;;;;;;;4.22;2.28;;;23.20;99.90;;;;;;5041878;28;20081;-82
2022/04/21 10:11:51;;;;;;;3.83;3.28;;;23.30;99.90;;;;;;5043572;28;20144;-83
2022/04/21 10:14:17;;;;;;;4.07;2.97;;;24.90;99.90;;;;;;5052900;28;20033;-83
2022/04/21 10:16:43;;;;;;;4.53;3.17;;;24.60;99.90;;;;;;5045491;28;20029;-83
2022/04/21 10:19:11;;;;;;;6.20;2.90;;;24.00;99.90;;;;;;5049916;28;20684;-82
2022/04/21 10:22:11;;;;;;;4.88;2.70;;;24.20;99.90;;;;;;5044278;28;20021;-83
2022/04/21 10:24:40;;;;;;;5.18;3.15;;;24.60;99.90;;;;;;5048613;28;20037;-83
2022/04/21 10:27:25;;;;;;;2.85;2.55;;;23.60;99.90;;;;;;5041930;28;20025;-83
2022/04/21 10:29:52;;;;;;;3.10;2.50;;;23.30;99.90;;;;;;5040709;28;20111;-82
2022/04/21 10:32:18;;;;;;;3.30;3.00;;;22.70;99.90;;;;;;5059283;28;20091;-82
2022/04/21 10:34:46;;;;;;;3.53;3.08;;;22.10;99.90;;;;;;5041220;28;20475;-83
2022/04/21 10:37:19;;;;;;;3.70;2.67;;;23.20;99.90;;;;;;5039217;28;20158;-82
2022/04/21 10:40:10;;;;;;;2.67;2.40;;;23.50;99.90;;;;;;5036845;28;20052;-81
2022/04/21 10:42:55;;;;;;;3.13;2.83;;;23.00;99.90;;;;;;5036515;28;20021;-82
2022/04/21 10:45:26;;;;;;;4.93;3.53;;;22.90;99.90;;;;;;5036586;28;20022;-82
2022/04/21 10:48:07;;;;;;;3.17;2.50;;;23.40;99.90;;;;;;5038372;28;20018;-82
2022/04/21 10:50:33;;;;;;;3.47;2.80;;;22.40;99.90;;;;;;5056867;28;20052;-82
2022/04/21 10:59:05;;;;;;;2.55;2.00;;;21.40;99.90;;;;;;4994889;28;20096;-81
2022/04/21 11:01:31;;;;;;;4.22;2.60;;;21.80;99.90;;;;;;5024417;28;20034;-81
2022/04/21 11:04:19;;;;;;;4.65;2.60;;;20.80;99.90;;;;;;5046049;28;20344;-81
2022/04/21 11:06:54;;;;;;;2.90;2.58;;;20.80;99.90;;;;;;5055499;28;20017;-81
2022/04/21 11:09:38;;;;;;;3.80;2.88;;;19.70;99.90;;;;;;5042147;28;20036;-81
2022/04/21 11:12:05;;;;;;;2.80;2.50;;;18.40;99.90;;;;;;5044839;28;20086;-82
2022/04/21 11:14:34;;;;;;;3.35;2.47;;;17.90;99.90;;;;;;5045488;28;20492;-82
2022/04/21 11:17:01;;;;;;;3.17;2.88;;;18.20;99.90;;;;;;5040486;28;20041;-82
2022/04/21 11:19:29;;;;;;;4.20;2.92;;;17.60;99.90;;;;;;5042194;28;20029;-82
2022/04/21 11:21:56;;;;;;;3.72;2.80;;;17.90;99.90;;;;;;5047606;28;20121;-82
2022/04/21 11:24:23;;;;;;;3.45;2.40;;;18.10;99.90;;;;;;5049022;28;20017;-82
2022/04/21 11:26:56;;;;;;;2.90;2.58;;;17.30;99.90;;;;;;5049785;28;20090;-82
2022/04/21 11:29:22;;;;;;;3.05;2.35;;;17.40;99.90;;;;;;5028367;28;20030;-82
2022/04/21 11:31:53;;;;;;;3.67;2.55;;;17.50;99.90;;;;;;5047249;28;20030;-82
2022/04/21 11:34:23;;;;;;;3.13;2.28;;;17.80;99.90;;;;;;5048289;28;20100;-82
2022/04/21 11:36:53;;;;;;;3.25;2.75;;;17.80;99.90;;;;;;5041760;28;20023;-83
2022/04/21 11:39:19;;;;;;;2.42;1.77;;;17.80;99.90;;;;;;5047366;28;20048;-82
2022/04/21 11:41:48;;;;;;;5.55;3.22;;;17.30;99.90;;;;;;5041770;28;20053;-82
2022/04/21 11:44:23;;;;;;;3.25;2.38;;;17.20;99.90;;;;;;5038221;28;20041;-82
2022/04/21 11:46:49;;;;;;;3.97;2.60;;;17.40;99.90;;;;;;5048463;28;20057;-82
2022/04/21 11:49:15;;;;;;;3.22;2.72;;;17.50;99.90;;;;;;5042558;28;20400;-82
2022/04/21 11:51:42;;;;;;;4.65;3.00;;;17.60;99.90;;;;;;5051802;28;20043;-82
2022/04/21 11:54:10;;;;;;;4.68;3.65;;;17.50;99.90;;;;;;5044957;28;20052;-82
2022/04/21 11:56:36;;;;;;;4.82;3.05;;;17.80;99.90;;;;;;5046314;28;20029;-82
2022/04/21 11:59:07;;;;;;;3.60;3.20;;;17.80;99.90;;;;;;5046894;28;20092;-82
2022/04/21 12:07:03;;;;;;;4.88;3.50;;;16.90;99.90;;;;;;5040822;28;20032;-82
2022/04/21 12:09:34;;;;;;;4.60;3.60;;;16.80;99.90;;;;;;5057746;28;20025;-82
2022/04/21 12:12:02;;;;;;;4.35;2.88;;;17.50;99.90;;;;;;5060980;28;20028;-82
2022/04/21 12:14:29;;;;;;;5.47;3.90;;;17.10;99.90;;;;;;5049106;28;20045;-82
2022/04/21 12:16:59;;;;;;;4.90;3.40;;;16.80;99.90;;;;;;5043570;28;20030;-82
2022/04/21 12:19:35;;;;;;;4.25;2.85;;;16.90;99.90;;;;;;5041519;28;20025;-82
2022/04/21 12:22:19;;;;;;;4.57;3.33;;;17.00;99.90;;;;;;5048143;28;20079;-82
2022/04/21 12:24:55;;;;;;;3.53;2.55;;;17.20;99.90;;;;;;5052291;28;20128;-82
2022/04/21 12:27:28;;;;;;;4.95;3.35;;;17.00;99.90;;;;;;5057933;28;20053;-83
2022/04/21 12:29:58;;;;;;;6.45;2.85;;;17.20;99.90;;;;;;5058901;28;20542;-82
2022/04/21 12:32:28;;;;;;;3.88;3.45;;;16.90;99.90;;;;;;5053230;28;20048;-82
2022/04/21 12:34:55;;;;;;;4.30;3.30;;;16.80;99.90;;;;;;5027486;28;20032;-82
2022/04/21 12:37:30;;;;;;;5.25;1.95;;;16.80;99.90;;;;;;5054206;28;20100;-82
2022/04/21 12:39:57;;;;;;;5.50;3.03;;;16.80;99.90;;;;;;5052301;28;20414;-82
2022/04/21 12:42:23;;;;;;;4.50;3.08;;;17.00;99.90;;;;;;5042490;28;20112;-82
2022/04/21 12:44:50;;;;;;;3.67;2.80;;;16.80;99.90;;;;;;5049756;28;20040;-83
2022/04/21 12:47:18;;;;;;;4.47;3.28;;;16.80;99.90;;;;;;5048801;28;20013;-83
2022/04/21 12:50:03;;;;;;;4.45;3.05;;;17.10;99.90;;;;;;5046579;28;20035;-82
2022/04/21 12:52:44;;;;;;;5.50;3.35;;;16.70;99.90;;;;;;5045544;28;20384;-82
2022/04/21 12:55:21;;;;;;;4.47;2.90;;;16.80;99.90;;;;;;5045883;28;20036;-82
2022/04/21 12:58:06;;;;;;;5.18;2.80;;;16.70;99.90;;;;;;5044945;28;20372;-82
2022/04/21 13:00:34;;;;;;;4.95;3.03;;;16.70;99.90;;;;;;5047852;28;20152;-82
2022/04/21 13:03:03;;;;;;;4.53;3.20;;;16.40;99.90;;;;;;5048341;28;20082;-82
2022/04/21 13:05:30;;;;;;;4.50;2.97;;;16.70;99.90;;;;;;5050454;28;20021;-82
2022/04/21 13:08:11;;;;;;;5.00;3.53;;;16.60;99.90;;;;;;5052400;28;20116;-82
2022/04/21 13:10:36;;;;;;;4.90;3.03;;;16.50;99.90;;;;;;5051943;28;20116;-82
2022/04/21 13:13:02;;;;;;;3.95;3.25;;;16.60;99.90;;;;;;5052330;28;20108;-83
2022/04/21 13:15:27;;;;;;;3.70;2.50;;;16.70;99.90;;;;;;5052963;28;20029;-82
2022/04/21 13:17:53;;;;;;;3.75;3.35;;;16.50;99.90;;;;;;5053221;28;20494;-82
2022/04/21 13:23:03;;;;;;;6.05;2.45;;;16.50;99.90;;;;;;5052709;28;20059;-83
2022/04/21 13:25:28;;;;;;;3.80;3.00;;;16.80;99.90;;;;;;5052399;28;20048;-82
2022/04/21 13:27:54;;;;;;;3.85;3.42;;;16.70;99.90;;;;;;5052737;28;20036;-83
2022/04/21 13:30:20;;;;;;;3.92;3.13;;;16.60;99.90;;;;;;5035277;28;20499;-82
2022/04/21 13:35:29;;;;;;;3.15;2.85;;;16.70;99.90;;;;;;5053509;28;20036;-82
2022/04/21 13:37:55;;;;;;;6.40;2.95;;;16.50;99.90;;;;;;5035270;28;20029;-82
2022/04/21 13:40:20;;;;;;;3.70;2.55;;;16.20;99.90;;;;;;5053663;28;20396;-82
2022/04/21 13:42:46;;;;;;;4.65;2.92;;;16.20;99.90;;;;;;5053260;28;20036;-82
2022/04/21 13:45:12;;;;;;;5.82;3.92;;;16.40;99.90;;;;;;5035697;28;20021;-82
2022/04/21 13:47:38;;;;;;;5.38;2.90;;;16.30;99.90;;;;;;5035476;28;20021;-83
2022/04/21 13:50:04;;;;;;;6.00;3.15;;;16.30;99.90;;;;;;5053631;28;20039;-83
2022/04/21 13:52:32;;;;;;;3.65;3.25;;;16.00;99.90;;;;;;5044717;28;20017;-82